• Join FlightAware (Why Join?)
  • Login
  • US Flag 
08:39AM EDT


 

Airport Tracker/Info


-or-


 

Live Flight TrackerFlight Track Log ✈ N479B ✈ 13-Feb-2014 ✈ KJAN - KCRS

Flight Track Log - Related Links

Times and Time Zones

All times are in EST time to prevent confusion due to time zone crossing. See the N479B flight status page for this flight to view local times or setup timezone preferences in your user account.

Time Position Orientation Groundspeed Altitude Reporting Facility
EST Latitude Longitude Course Direction KTS MPH feet Rate Location/Type
10:29AM 32.3767 -90.2219 280° West 193 222 6,900  Level Memphis Center
10:30AM 32.3761 -90.2822 269° West 190 219 8,900 1,800 Climbing Memphis Center
10:31AM 32.3747 -90.3436 268° West 187 215 10,600 1,800 Climbing Memphis Center
10:32AM 32.3722 -90.4075 267° West 192 221 12,600 2,040 Climbing Memphis Center
10:33AM 32.3697 -90.4839 268° West 194 223 14,800 1,920 Climbing Memphis Center
10:34AM 32.3683 -90.5472 269° West 194 223 16,600 1,560 Climbing Memphis Center
10:35AM 32.3656 -90.6103 267° West 194 223 18,100 1,380 Climbing Memphis Center
10:36AM 32.3631 -90.6708 267° West 188 216 19,500 1,200 Climbing Memphis Center
10:37AM 32.3611 -90.7322 268° West 188 216 20,600 1,020 Climbing Memphis Center
10:38AM 32.3592 -90.7956 268° West 192 221 21,700 1,020 Climbing Memphis Center
10:39AM 32.3564 -90.8583 267° West 192 221 22,800 1,140 Climbing Memphis Center
10:40AM 32.3542 -90.9322 268° West 190 219 24,100 1,080 Climbing Memphis Center
10:41AM 32.3517 -90.9911 267° West 184 212 25,100 900 Climbing Memphis Center
10:42AM 32.3489 -91.0494 267° West 180 207 26,000 420 Climbing Memphis Center
10:43AM 32.3464 -91.1097 267° West 183 211 26,000  Level Memphis Center
10:44AM 32.3439 -91.1922 268° West 206 237 26,000  Level Memphis Center
10:45AM 32.3403 -91.2631 267° West 215 247 26,000  Level Memphis Center
10:46AM 32.3378 -91.3344 268° West 217 250 26,000  Level Memphis Center
10:47AM 32.3344 -91.4053 267° West 218 251 26,000 -180 Level Memphis Center
10:48AM 32.3314 -91.4917 268° West 219 252 25,700 -420 Descending Memphis Center
10:49AM 32.3269 -91.5672 266° West 228 262 25,200 -540 Descending Memphis Center
10:50AM 32.3272 -91.5825 271° West 229 264 25,100 -660 Descending Memphis Center
10:51AM 32.3239 -91.6600 267° West 235 270 24,400 -540 Descending Memphis Center
10:52AM 32.3189 -91.7406 266° West 243 280 24,000 -300 Descending Memphis Center
10:53AM 32.3169 -91.8161 268° West 235 270 23,800 -540 Descending Memphis Center
10:54AM 32.3131 -91.8956 267° West 240 276 22,900 -960 Descending Memphis Center
10:54AM 32.3128 -91.9394 270° West 253 291 22,400 -960 Descending Fort Worth Center
10:55AM 32.3078 -92.0436 267° West 266 306 21,400 -960 Descending Fort Worth Center
10:56AM 32.3039 -92.1336 267° West 274 315 20,500 -720 Descending Fort Worth Center
10:57AM 32.2986 -92.2231 266° West 274 315 20,000 -300 Descending Fort Worth Center
10:58AM 32.2953 -92.3064 267° West 259 298 20,000  Level Fort Worth Center
10:59AM 32.2908 -92.3889 266° West 252 290 20,000  Level Fort Worth Center
11:00AM 32.2864 -92.4875 267° West 252 290 20,000  Level Fort Worth Center
11:01AM 32.2822 -92.5683 267° West 249 287 20,000  Level Fort Worth Center
11:02AM 32.2781 -92.6503 267° West 251 289 20,000  Level Fort Worth Center
11:03AM 32.2736 -92.7317 266° West 251 289 20,000  Level Fort Worth Center
11:05AM 32.2703 -92.8131 267° West 249 287 20,000  Level Fort Worth Center
11:06AM 32.2650 -92.8964 266° West 252 290 20,000  Level Fort Worth Center
11:07AM 32.2594 -92.9956 266° West 254 292 20,000 240 Level Fort Worth Center
11:08AM 32.2550 -93.0783 266° West 253 291 20,500 540 Climbing Fort Worth Center
11:09AM 32.2494 -93.1617 266° West 242 278 21,200 600 Climbing Fort Worth Center
11:10AM 32.2458 -93.2358 267° West 230 265 21,800 360 Climbing Fort Worth Center
11:11AM 32.2419 -93.3106 266° West 228 262 22,000 60 Climbing Fort Worth Center
11:12AM 32.2375 -93.3869 266° West 233 268 22,000  Level Fort Worth Center
11:13AM 32.2317 -93.4700 265° West 250 288 22,000  Level Fort Worth Center
11:14AM 32.2272 -93.5467 266° West 237 273 22,000  Level Fort Worth Center
11:15AM 32.2225 -93.6414 267° West 240 276 22,000  Level Fort Worth Center
11:16AM 32.2175 -93.7189 266° West 238 274 22,000  Level Fort Worth Center
11:17AM 32.2133 -93.7947 266° West 234 269 22,000  Level Fort Worth Center
11:18AM 32.2086 -93.8739 266° West 240 276 22,000  Level Fort Worth Center
11:19AM 32.2033 -93.9522 265° West 240 276 22,000  Level Fort Worth Center
11:20AM 32.1992 -94.0306 266° West 240 276 22,000  Level Fort Worth Center
11:21AM 32.1933 -94.1086 265° West 239 275 22,000  Level Fort Worth Center
11:22AM 32.1875 -94.2006 266° West 236 272 22,000  Level Fort Worth Center
11:23AM 32.1842 -94.2711 267° West 237 273 22,000  Level Fort Worth Center
11:24AM 32.1775 -94.3647 265° West 239 275 22,000  Level Fort Worth Center
11:25AM 32.1731 -94.4403 266° West 234 269 22,000  Level Fort Worth Center
11:26AM 32.1678 -94.5178 265° West 236 272 22,000  Level Fort Worth Center
11:27AM 32.1622 -94.5944 265° West 236 272 22,000  Level Fort Worth Center
11:28AM 32.1578 -94.6700 266° West 233 268 22,000  Level Fort Worth Center
11:29AM 32.1522 -94.7475 265° West 237 273 22,000  Level Fort Worth Center
11:30AM 32.1461 -94.8394 266° West 237 273 22,000  Level Fort Worth Center
11:31AM 32.1400 -94.9169 265° West 237 273 22,000  Level Fort Worth Center
11:32AM 32.1358 -94.9956 266° West 240 276 22,000  Level Fort Worth Center
11:33AM 32.1289 -95.0733 264° West 239 275 22,000  Level Fort Worth Center
11:35AM 32.1236 -95.1519 265° West 240 276 22,000 -720 Level Fort Worth Center
11:36AM 32.1172 -95.2525 266° West 255 293 20,600 -1,320 Descending Fort Worth Center
11:37AM 32.1094 -95.3439 264° West 276 318 19,300 -1,320 Descending Fort Worth Center
11:38AM 32.1025 -95.4364 265° West 283 326 17,900 -1,380 Descending Fort Worth Center
11:39AM 32.0961 -95.5322 266° West 291 335 16,500 -1,440 Descending Fort Worth Center
11:40AM 32.0883 -95.6286 265° West 296 341 15,000 -1,500 Descending Fort Worth Center
11:41AM 32.0817 -95.7208 265° West 287 330 13,400 -1,740 Descending Fort Worth Center
11:42AM 32.0728 -95.8292 264° West 278 320 11,500 -1,740 Descending Fort Worth Center
11:43AM 32.0653 -95.9186 264° West 276 318 9,900 -1,560 Descending Fort Worth Center